Time;durP1;ratioP1;P1;durP2;ratioP2;P2;SDS_P1;SDS_P2;PMS_P1;PMS_P2;Temp;Humidity;BMP_temperature;BMP_pressure;BME280_temperature;BME280_humidity;BME280_pressure;Samples;Min_cycle;Max_cycle;Signal;HPM_P1;HPM_P2
2024/04/03 00:00:25;;;;;;;5.70;3.88;;;21.50;99.90;;;;;;5055168;28;20017;-49
2024/04/03 00:02:51;;;;;;;6.03;4.47;;;21.50;99.90;;;;;;5072912;28;20032;-48
2024/04/03 00:05:17;;;;;;;6.93;4.00;;;21.50;99.90;;;;;;5055399;28;20028;-52
2024/04/03 00:07:43;;;;;;;6.93;4.78;;;21.50;99.90;;;;;;5055155;28;20032;-48
2024/04/03 00:10:09;;;;;;;5.25;4.10;;;21.50;99.90;;;;;;5072919;28;20029;-49
2024/04/03 00:12:35;;;;;;;7.63;4.57;;;21.50;99.90;;;;;;5073193;28;20027;-48
2024/04/03 00:15:01;;;;;;;9.50;4.40;;;21.50;99.90;;;;;;5072805;28;20029;-49
2024/04/03 00:17:27;;;;;;;7.05;4.22;;;21.50;99.90;;;;;;5072914;28;20078;-49
2024/04/03 00:19:52;;;;;;;8.20;4.30;;;21.40;99.90;;;;;;5073042;28;20052;-50
2024/04/03 00:22:19;;;;;;;8.07;3.95;;;21.40;99.90;;;;;;5072776;28;20039;-49
2024/04/03 00:24:44;;;;;;;6.00;4.03;;;21.40;99.90;;;;;;5072668;28;20033;-50
2024/04/03 00:27:10;;;;;;;6.90;4.20;;;21.40;99.90;;;;;;5072607;28;20025;-51
2024/04/03 00:29:36;;;;;;;5.97;4.03;;;21.40;99.90;;;;;;5072855;28;20032;-49
2024/04/03 00:32:02;;;;;;;6.63;4.32;;;21.40;99.90;;;;;;5054534;28;20099;-48
2024/04/03 00:34:28;;;;;;;6.13;4.53;;;21.40;99.90;;;;;;5072599;28;20020;-49
2024/04/03 00:36:53;;;;;;;7.80;5.55;;;21.40;99.90;;;;;;5072421;28;20487;-48
2024/04/03 00:39:20;;;;;;;6.07;4.30;;;21.40;99.90;;;;;;5072495;28;20472;-48
2024/04/03 00:41:46;;;;;;;6.85;3.90;;;21.40;99.90;;;;;;5072345;28;20024;-48
2024/04/03 00:44:12;;;;;;;6.70;4.80;;;21.40;99.90;;;;;;5054496;28;20050;-48
2024/04/03 00:46:38;;;;;;;6.68;4.68;;;21.40;99.90;;;;;;5072887;28;20067;-49
2024/04/03 00:49:04;;;;;;;6.90;4.20;;;21.30;99.90;;;;;;5054038;28;20041;-49
2024/04/03 00:51:30;;;;;;;7.30;3.97;;;21.30;99.90;;;;;;5072790;28;20041;-49
2024/04/03 00:53:56;;;;;;;6.53;4.20;;;21.30;99.90;;;;;;5072239;28;20030;-49
2024/04/03 00:56:24;;;;;;;6.53;4.35;;;21.30;99.90;;;;;;5072249;28;20099;-49
2024/04/03 00:58:50;;;;;;;;;;;21.30;99.90;;;;;;5072593;28;20024;-49
2024/04/03 01:01:16;;;;;;;8.23;4.68;;;21.30;99.90;;;;;;5071835;28;19911;-49
2024/04/03 01:03:42;;;;;;;7.55;4.72;;;21.30;99.90;;;;;;5072264;28;20122;-52
2024/04/03 01:06:08;;;;;;;7.90;4.97;;;21.30;99.90;;;;;;5072213;28;20029;-48
2024/04/03 01:08:34;;;;;;;8.52;4.63;;;21.30;99.90;;;;;;5072022;28;20039;-49
2024/04/03 01:11:00;;;;;;;8.75;5.18;;;21.30;99.90;;;;;;5072098;28;20028;-49
2024/04/03 01:13:27;;;;;;;8.80;4.43;;;21.30;99.90;;;;;;5071842;28;20488;-48
2024/04/03 01:16:04;;;;;;;7.45;4.97;;;21.30;99.90;;;;;;5071986;28;20096;-49
2024/04/03 01:18:30;;;;;;;6.25;4.70;;;21.30;99.90;;;;;;5071930;28;20020;-49
2024/04/03 01:20:56;;;;;;;7.03;4.68;;;21.20;99.90;;;;;;5053859;28;20032;-49
2024/04/03 01:23:22;;;;;;;7.78;5.13;;;21.20;99.90;;;;;;5071799;28;20029;-49
2024/04/03 01:25:51;;;;;;;9.23;5.00;;;21.20;99.90;;;;;;5071866;28;20025;-49
2024/04/03 01:28:20;;;;;;;7.75;5.15;;;21.20;99.90;;;;;;5071669;28;20119;-48
2024/04/03 01:30:46;;;;;;;8.77;5.15;;;21.20;99.90;;;;;;5054719;28;20437;-49
2024/04/03 01:33:12;;;;;;;6.78;5.32;;;21.20;99.90;;;;;;5071969;28;20091;-49
2024/04/03 01:35:38;;;;;;;7.63;5.10;;;21.20;99.90;;;;;;5071844;28;20473;-49
2024/04/03 01:38:04;;;;;;;7.68;5.45;;;21.20;99.90;;;;;;5071820;28;20036;-47
2024/04/03 01:40:30;;;;;;;7.65;5.32;;;21.20;99.90;;;;;;5053608;28;20024;-49
2024/04/03 01:42:56;;;;;;;7.68;4.88;;;21.10;99.90;;;;;;5071774;28;20026;-49
2024/04/03 01:45:21;;;;;;;8.15;5.43;;;21.20;99.90;;;;;;5071674;28;20025;-48
2024/04/03 01:47:47;;;;;;;9.27;5.40;;;21.10;99.90;;;;;;5071669;28;20075;-48
2024/04/03 01:50:20;;;;;;;7.03;5.05;;;21.20;99.90;;;;;;5072297;28;20016;-48
2024/04/03 01:52:47;;;;;;;8.68;6.10;;;21.10;99.90;;;;;;5071639;28;20021;-48
2024/04/03 01:55:13;;;;;;;8.10;5.43;;;21.10;99.90;;;;;;5071723;28;20097;-48
2024/04/03 01:57:39;;;;;;;8.45;5.70;;;21.10;99.90;;;;;;5071210;28;20020;-48
2024/04/03 02:00:06;;;;;;;8.05;5.80;;;21.10;99.90;;;;;;5071622;28;20083;-48
2024/04/03 02:02:32;;;;;;;9.02;5.88;;;21.10;99.90;;;;;;5071645;28;20082;-48
2024/04/03 02:04:58;;;;;;;7.72;5.10;;;21.10;99.90;;;;;;5053312;28;20461;-49
2024/04/03 02:07:23;;;;;;;10.23;5.43;;;21.10;99.90;;;;;;5071293;28;20032;-49
2024/04/03 02:09:51;;;;;;;9.25;5.65;;;21.10;99.90;;;;;;5071186;28;20044;-49
2024/04/03 02:12:19;;;;;;;8.90;5.60;;;21.10;99.90;;;;;;5071360;28;20017;-48
2024/04/03 02:14:45;;;;;;;;;;;21.10;99.90;;;;;;5071950;28;20028;-50
2024/04/03 02:17:11;;;;;;;7.05;5.45;;;21.10;99.90;;;;;;5074267;28;20278;-49
2024/04/03 02:19:36;;;;;;;7.38;5.10;;;21.10;99.90;;;;;;5075225;28;20074;-49
2024/04/03 02:22:02;;;;;;;7.78;5.45;;;21.10;99.90;;;;;;5075081;28;20016;-48
2024/04/03 02:24:28;;;;;;;8.00;5.20;;;21.00;99.90;;;;;;5057336;28;20024;-48
2024/04/03 02:26:54;;;;;;;9.18;5.38;;;21.00;99.90;;;;;;5075163;28;20028;-49
2024/04/03 02:29:19;;;;;;;6.15;4.80;;;21.00;99.90;;;;;;5074935;28;20548;-48
2024/04/03 02:31:45;;;;;;;8.30;6.00;;;21.10;99.90;;;;;;5075056;28;20044;-49
2024/04/03 02:34:11;;;;;;;7.30;5.47;;;21.00;99.90;;;;;;5075115;28;20024;-48
2024/04/03 02:36:37;;;;;;;8.20;5.32;;;21.00;99.90;;;;;;5056948;28;20508;-48
2024/04/03 02:39:03;;;;;;;6.07;4.47;;;21.00;99.90;;;;;;5074754;28;20025;-48
2024/04/03 02:41:29;;;;;;;6.28;4.60;;;21.00;99.90;;;;;;5074900;28;20381;-49
2024/04/03 02:43:55;;;;;;;6.35;4.43;;;21.00;99.90;;;;;;5074708;28;20027;-48
2024/04/03 02:46:21;;;;;;;7.78;5.35;;;21.00;99.90;;;;;;5074910;28;20464;-49
2024/04/03 02:48:46;;;;;;;7.25;4.68;;;21.00;99.90;;;;;;5074693;28;20513;-48
2024/04/03 02:51:12;;;;;;;5.97;4.55;;;21.00;99.90;;;;;;5075106;28;20062;-49
2024/04/03 02:53:38;;;;;;;7.60;5.30;;;21.00;99.90;;;;;;5074662;28;20086;-49
2024/04/03 02:56:06;;;;;;;8.77;5.22;;;21.00;99.90;;;;;;5063611;28;20032;-49
2024/04/03 02:58:36;;;;;;;6.65;4.57;;;21.00;99.90;;;;;;5061517;28;20017;-48
2024/04/03 03:01:03;;;;;;;10.52;4.82;;;21.00;99.90;;;;;;5054059;28;20108;-49
2024/04/03 03:03:30;;;;;;;;;;;21.00;99.90;;;;;;5036970;28;20070;-49
2024/04/03 03:06:00;;;;;;;6.53;4.65;;;21.00;99.90;;;;;;5053991;28;19905;-49
2024/04/03 03:08:30;;;;;;;7.13;5.03;;;20.90;99.90;;;;;;5036027;28;20086;-49
2024/04/03 03:11:00;;;;;;;7.53;4.85;;;20.90;99.90;;;;;;5052128;28;20025;-49
2024/04/03 03:13:27;;;;;;;7.22;4.70;;;20.90;99.90;;;;;;5051775;28;20088;-50
2024/04/03 03:15:54;;;;;;;9.93;5.80;;;20.90;99.90;;;;;;5043693;28;20414;-49
2024/04/03 03:18:21;;;;;;;6.85;4.85;;;20.90;99.90;;;;;;5051856;28;20024;-49
2024/04/03 03:20:48;;;;;;;7.22;4.50;;;20.90;99.90;;;;;;5052053;28;20127;-49
2024/04/03 03:23:14;;;;;;;5.93;4.20;;;20.90;99.90;;;;;;5051943;28;20029;-50
2024/04/03 03:25:41;;;;;;;7.95;5.00;;;20.90;99.90;;;;;;5051669;28;20028;-49
2024/04/03 03:28:07;;;;;;;8.85;4.93;;;20.90;99.90;;;;;;5050562;28;20481;-50
2024/04/03 03:30:33;;;;;;;9.32;5.00;;;20.90;99.90;;;;;;5033797;28;20025;-49
2024/04/03 03:32:58;;;;;;;6.22;4.45;;;20.90;99.90;;;;;;5051743;28;20355;-50
2024/04/03 03:35:24;;;;;;;7.38;4.85;;;20.90;99.90;;;;;;5051966;28;20029;-49
2024/04/03 03:37:50;;;;;;;5.55;4.47;;;20.90;99.90;;;;;;5051464;28;20055;-49
2024/04/03 03:40:17;;;;;;;7.78;5.03;;;20.90;99.90;;;;;;5052122;28;20477;-50
2024/04/03 03:42:43;;;;;;;7.13;5.15;;;20.90;99.90;;;;;;5053487;28;20021;-49
2024/04/03 03:45:09;;;;;;;7.00;4.82;;;20.90;99.90;;;;;;5053386;28;20025;-49
2024/04/03 03:47:35;;;;;;;6.35;4.32;;;20.90;99.90;;;;;;5035352;28;20036;-48
2024/04/03 03:52:47;;;;;;;10.77;5.60;;;20.80;99.90;;;;;;5009551;28;20128;-49
2024/04/03 03:55:13;;;;;;;7.97;4.63;;;20.80;99.90;;;;;;5035499;28;20493;-48
2024/04/03 03:57:38;;;;;;;6.50;4.32;;;20.80;99.90;;;;;;5068086;28;20102;-49
2024/04/03 04:00:05;;;;;;;7.43;4.63;;;20.80;99.90;;;;;;5073249;28;20051;-48
2024/04/03 04:02:31;;;;;;;7.10;4.65;;;20.80;99.90;;;;;;5055610;28;20036;-49
2024/04/03 04:04:56;;;;;;;8.80;4.82;;;20.80;99.90;;;;;;5073038;28;20074;-50
2024/04/03 04:07:23;;;;;;;6.22;4.80;;;20.80;99.90;;;;;;5072977;28;20094;-48
2024/04/03 04:09:52;;;;;;;5.45;3.92;;;20.80;99.90;;;;;;5073262;28;20024;-49
2024/04/03 04:12:19;;;;;;;8.15;4.25;;;20.80;99.90;;;;;;5073331;28;20020;-49
2024/04/03 04:14:52;;;;;;;5.50;3.65;;;20.80;99.90;;;;;;5072941;28;20036;-49
2024/04/03 04:17:19;;;;;;;7.38;4.03;;;20.80;99.90;;;;;;5073342;28;20033;-49
2024/04/03 04:19:45;;;;;;;5.22;4.00;;;20.80;99.90;;;;;;5055065;28;20056;-49
2024/04/03 04:22:12;;;;;;;6.45;4.20;;;20.80;99.90;;;;;;5055064;28;20169;-49
2024/04/03 04:24:39;;;;;;;5.60;4.00;;;20.80;99.90;;;;;;5072825;28;20029;-49
2024/04/03 04:27:07;;;;;;;6.85;4.05;;;20.80;99.90;;;;;;5072716;28;20028;-49
2024/04/03 04:29:36;;;;;;;5.63;3.75;;;20.70;99.90;;;;;;5072661;28;20042;-50
2024/04/03 04:32:03;;;;;;;6.72;4.03;;;20.80;99.90;;;;;;5072398;28;20159;-48
2024/04/03 04:34:29;;;;;;;6.55;4.00;;;20.80;99.90;;;;;;5054738;28;20115;-48
2024/04/03 04:36:55;;;;;;;6.28;4.00;;;20.80;99.90;;;;;;5072325;28;20140;-48
2024/04/03 04:39:20;;;;;;;7.53;3.97;;;20.80;99.90;;;;;;5072470;28;20020;-49
2024/04/03 04:41:52;;;;;;;7.32;4.55;;;20.80;99.90;;;;;;5072294;28;20031;-49
2024/04/03 04:44:19;;;;;;;6.88;4.30;;;20.70;99.90;;;;;;5072726;28;20377;-49
2024/04/03 04:46:48;;;;;;;5.63;4.03;;;20.70;99.90;;;;;;5037969;28;20476;-49
2024/04/03 04:49:16;;;;;;;5.25;3.78;;;20.70;99.90;;;;;;5072066;28;20289;-49
2024/04/03 04:51:42;;;;;;;6.53;4.50;;;20.70;99.90;;;;;;5072373;28;20072;-49
2024/04/03 04:54:09;;;;;;;6.20;4.28;;;20.70;99.90;;;;;;5072196;28;20450;-50
2024/04/03 04:56:34;;;;;;;5.28;4.15;;;20.70;99.90;;;;;;5072022;28;20046;-49
2024/04/03 04:59:02;;;;;;;6.38;4.28;;;20.70;99.90;;;;;;5072188;28;20016;-50
2024/04/03 05:01:27;;;;;;;4.53;3.78;;;20.70;99.90;;;;;;5054832;28;20024;-49
2024/04/03 05:03:53;;;;;;;6.75;4.13;;;20.70;99.90;;;;;;5042300;28;20366;-49
2024/04/03 05:06:19;;;;;;;5.22;3.72;;;20.70;99.90;;;;;;5052058;28;20028;-49
2024/04/03 05:08:45;;;;;;;4.85;3.70;;;20.70;99.90;;;;;;5033981;28;20059;-49
2024/04/03 05:11:12;;;;;;;6.68;3.95;;;20.70;99.90;;;;;;5050970;28;20381;-49
2024/04/03 05:13:38;;;;;;;6.68;4.60;;;20.70;99.90;;;;;;5033912;28;20021;-49
2024/04/03 05:16:08;;;;;;;6.45;3.95;;;20.70;99.90;;;;;;5052040;28;20028;-49
2024/04/03 05:18:34;;;;;;;9.73;4.20;;;20.60;99.90;;;;;;5051751;28;20044;-49
2024/04/03 05:21:00;;;;;;;5.45;3.75;;;20.70;99.90;;;;;;5052448;28;20025;-49
2024/04/03 05:23:26;;;;;;;8.95;3.67;;;20.60;99.90;;;;;;5051765;28;20028;-48
2024/04/03 05:26:00;;;;;;;5.47;3.75;;;20.70;99.90;;;;;;5051974;28;20023;-49
2024/04/03 05:28:26;;;;;;;5.68;3.45;;;20.60;99.90;;;;;;5051603;28;20385;-48
2024/04/03 05:30:53;;;;;;;4.90;3.60;;;20.60;99.90;;;;;;5051819;28;20052;-49
2024/04/03 05:33:19;;;;;;;4.30;3.05;;;20.60;99.90;;;;;;5051638;28;20108;-49
2024/04/03 05:35:55;;;;;;;4.35;3.17;;;20.60;99.90;;;;;;5033831;28;20048;-49
2024/04/03 05:38:21;;;;;;;4.80;3.63;;;20.60;99.90;;;;;;5051702;28;20368;-50
2024/04/03 05:40:49;;;;;;;4.70;3.45;;;20.60;99.90;;;;;;5051466;28;20104;-50
2024/04/03 05:43:15;;;;;;;6.68;4.15;;;20.60;99.90;;;;;;5033699;28;20021;-51
2024/04/03 05:45:41;;;;;;;3.90;3.17;;;20.50;99.90;;;;;;5051422;28;20028;-50
2024/04/03 05:48:08;;;;;;;3.53;3.08;;;20.60;99.90;;;;;;5033520;28;20082;-51
2024/04/03 05:50:34;;;;;;;5.20;3.50;;;20.50;99.90;;;;;;5051247;28;20417;-50
2024/04/03 05:52:59;;;;;;;5.00;4.07;;;20.50;99.90;;;;;;5055729;28;20029;-50
2024/04/03 05:55:25;;;;;;;4.28;3.13;;;20.50;99.90;;;;;;5055660;28;20028;-50
2024/04/03 05:57:51;;;;;;;4.70;3.22;;;20.50;99.90;;;;;;5072121;28;20027;-51
2024/04/03 06:00:17;;;;;;;4.82;3.42;;;20.50;99.90;;;;;;5075579;28;20028;-50
2024/04/03 06:02:43;;;;;;;4.40;3.28;;;20.50;99.90;;;;;;5075356;28;20031;-49
2024/04/03 06:05:09;;;;;;;5.03;3.40;;;20.50;99.90;;;;;;5075361;28;20115;-49
2024/04/03 06:07:35;;;;;;;5.30;3.10;;;20.50;99.90;;;;;;5075353;28;20037;-49
2024/04/03 06:10:02;;;;;;;4.82;3.30;;;20.50;99.90;;;;;;5075284;28;20103;-49
2024/04/03 06:12:27;;;;;;;5.82;3.13;;;20.50;99.90;;;;;;5075748;28;20067;-50
2024/04/03 06:14:53;;;;;;;4.07;3.30;;;20.50;99.90;;;;;;5075390;28;20064;-48
2024/04/03 06:17:19;;;;;;;4.55;3.33;;;20.50;99.90;;;;;;5075336;28;20025;-48
2024/04/03 06:19:45;;;;;;;4.65;3.17;;;20.50;99.90;;;;;;5057273;28;20456;-49
2024/04/03 06:22:11;;;;;;;4.05;3.10;;;20.50;99.90;;;;;;5075263;28;20154;-48
2024/04/03 06:24:37;;;;;;;6.35;3.50;;;20.50;99.90;;;;;;5057451;28;20029;-48
2024/04/03 06:27:04;;;;;;;4.45;2.97;;;20.50;99.90;;;;;;5075063;28;20553;-48
2024/04/03 06:29:30;;;;;;;4.17;3.10;;;20.50;99.90;;;;;;5075428;28;20357;-48
2024/04/03 06:31:57;;;;;;;4.43;2.60;;;20.50;99.90;;;;;;5072087;28;20265;-49
2024/04/03 06:34:23;;;;;;;4.70;3.20;;;20.50;99.90;;;;;;5046699;28;20499;-49
2024/04/03 06:36:49;;;;;;;4.88;3.00;;;20.50;99.90;;;;;;5074854;28;20028;-48
2024/04/03 06:39:14;;;;;;;4.45;3.10;;;20.50;99.90;;;;;;5074930;28;20464;-48
2024/04/03 06:41:40;;;;;;;4.40;3.03;;;20.50;99.90;;;;;;5074794;28;20537;-49
2024/04/03 06:44:06;;;;;;;4.25;2.97;;;20.50;99.90;;;;;;5074608;28;20031;-48
2024/04/03 06:46:32;;;;;;;4.60;2.88;;;20.50;99.90;;;;;;5074655;28;20029;-48
2024/04/03 06:48:58;;;;;;;4.50;3.17;;;20.40;99.90;;;;;;5074618;28;20036;-49
2024/04/03 06:51:23;;;;;;;4.50;3.10;;;20.40;99.90;;;;;;5074659;28;20110;-50
2024/04/03 06:53:50;;;;;;;4.45;3.05;;;20.40;99.90;;;;;;5074459;28;20911;-49
2024/04/03 06:56:15;;;;;;;4.05;3.22;;;20.40;99.90;;;;;;5074448;28;20464;-49
2024/04/03 06:58:43;;;;;;;5.05;3.10;;;20.50;99.90;;;;;;5074708;28;20058;-49
2024/04/03 07:01:11;;;;;;;5.88;3.70;;;20.50;99.90;;;;;;5074498;28;20103;-48
2024/04/03 07:03:37;;;;;;;5.22;3.13;;;20.50;99.90;;;;;;5074424;28;20167;-48
2024/04/03 07:06:03;;;;;;;6.00;2.90;;;20.50;99.90;;;;;;5056796;28;20112;-49
2024/04/03 07:08:29;;;;;;;4.15;3.00;;;20.40;99.90;;;;;;5028935;28;20111;-48
2024/04/03 07:10:54;;;;;;;3.90;3.10;;;20.50;99.90;;;;;;5056509;28;20029;-48
2024/04/03 07:13:23;;;;;;;4.20;2.80;;;20.50;99.90;;;;;;5074152;28;20380;-48
2024/04/03 07:15:50;;;;;;;4.78;3.25;;;20.50;99.90;;;;;;5074370;28;20074;-48
2024/04/03 07:18:17;;;;;;;4.80;2.88;;;20.50;99.90;;;;;;5074178;28;20025;-49
2024/04/03 07:20:52;;;;;;;6.32;3.20;;;20.50;99.90;;;;;;5056420;28;20020;-49
2024/04/03 07:23:18;;;;;;;4.43;2.97;;;20.50;99.90;;;;;;5056050;28;20362;-49
2024/04/03 07:25:44;;;;;;;3.97;2.80;;;20.50;99.90;;;;;;5074161;28;20024;-49
2024/04/03 07:28:11;;;;;;;4.80;2.97;;;20.50;99.90;;;;;;5055854;28;20511;-49
2024/04/03 07:30:39;;;;;;;3.25;2.63;;;20.50;99.90;;;;;;5056242;28;20368;-48
2024/04/03 07:33:05;;;;;;;;;;;20.50;99.90;;;;;;5074612;28;20090;-49
2024/04/03 07:35:31;;;;;;;6.30;2.97;;;20.50;99.90;;;;;;5074057;28;19908;-49
2024/04/03 07:37:57;;;;;;;5.45;2.97;;;20.50;99.90;;;;;;5074152;28;20032;-50
2024/04/03 07:40:23;;;;;;;6.05;3.40;;;20.50;99.90;;;;;;5073748;28;20744;-48
2024/04/03 07:42:49;;;;;;;4.20;3.45;;;20.50;99.90;;;;;;5073840;28;20047;-49
2024/04/03 07:45:15;;;;;;;11.07;3.03;;;20.50;99.90;;;;;;5073526;28;20547;-49
2024/04/03 07:47:42;;;;;;;3.83;2.90;;;20.50;99.90;;;;;;5073783;28;20020;-49
2024/04/03 07:50:08;;;;;;;3.03;2.55;;;20.50;99.90;;;;;;5073558;28;20025;-48
2024/04/03 07:52:38;;;;;;;3.70;2.30;;;20.50;99.90;;;;;;5073570;28;20459;-49
2024/04/03 07:55:14;;;;;;;4.68;2.88;;;20.50;99.90;;;;;;5073425;28;20099;-49
2024/04/03 07:57:41;;;;;;;7.40;3.22;;;20.50;99.90;;;;;;5055407;28;20032;-49
2024/04/03 08:00:08;;;;;;;4.95;2.85;;;20.50;99.90;;;;;;5073552;28;20028;-49
2024/04/03 08:02:39;;;;;;;;;;;20.50;99.90;;;;;;5073882;28;20094;-49
2024/04/03 08:05:06;;;;;;;13.20;3.00;;;20.50;99.90;;;;;;5073382;28;19939;-48
2024/04/03 08:07:32;;;;;;;3.65;2.50;;;20.50;99.90;;;;;;5055363;28;20426;-48
2024/04/03 08:10:00;;;;;;;4.13;2.90;;;20.50;99.90;;;;;;5073051;28;20029;-48
2024/04/03 08:12:26;;;;;;;5.95;2.60;;;20.50;99.90;;;;;;5073163;28;20096;-48
2024/04/03 08:14:52;;;;;;;4.40;3.10;;;20.50;99.90;;;;;;5072306;28;20034;-49
2024/04/03 08:17:18;;;;;;;3.58;2.60;;;20.50;99.90;;;;;;5073059;28;20051;-49
2024/04/03 08:19:44;;;;;;;7.65;2.92;;;20.50;99.90;;;;;;5072716;28;20028;-48
2024/04/03 08:22:09;;;;;;;4.65;3.03;;;20.50;99.90;;;;;;5055081;28;20024;-48
2024/04/03 08:24:37;;;;;;;3.78;2.97;;;20.50;99.90;;;;;;5054845;28;20063;-48
2024/04/03 08:27:04;;;;;;;3.30;2.22;;;20.50;99.90;;;;;;5072750;28;20394;-48
2024/04/03 08:29:32;;;;;;;3.77;2.50;;;20.50;99.90;;;;;;5072863;28;20036;-49
2024/04/03 08:31:59;;;;;;;3.40;2.53;;;20.50;99.90;;;;;;5072535;28;20249;-48
2024/04/03 08:34:25;;;;;;;3.95;2.58;;;20.50;99.90;;;;;;5072627;28;20492;-49
2024/04/03 08:36:51;;;;;;;4.82;3.05;;;20.50;99.90;;;;;;5072451;28;20047;-49
2024/04/03 08:39:16;;;;;;;4.13;2.83;;;20.60;99.90;;;;;;5054662;28;20082;-48
2024/04/03 08:41:43;;;;;;;4.85;2.63;;;20.60;99.90;;;;;;5072685;28;20028;-49
2024/04/03 08:44:09;;;;;;;4.18;2.63;;;20.60;99.90;;;;;;5072336;28;20069;-49
2024/04/03 08:46:37;;;;;;;5.25;2.40;;;20.60;99.90;;;;;;5054766;28;20024;-49
2024/04/03 08:49:07;;;;;;;6.55;3.25;;;20.60;99.90;;;;;;5072364;28;20546;-49
2024/04/03 08:51:33;;;;;;;3.58;2.33;;;20.60;99.90;;;;;;5054493;28;20408;-49
2024/04/03 08:54:09;;;;;;;4.15;2.53;;;20.60;99.90;;;;;;5072120;28;20025;-49
2024/04/03 08:56:35;;;;;;;4.82;2.72;;;20.60;99.90;;;;;;5072362;28;20016;-49
2024/04/03 08:59:03;;;;;;;3.78;2.92;;;20.60;99.90;;;;;;5072259;28;20044;-50
2024/04/03 09:01:29;;;;;;;5.10;2.75;;;20.60;99.90;;;;;;5071893;28;20036;-49
2024/04/03 09:03:55;;;;;;;4.75;3.05;;;20.60;99.90;;;;;;5072450;28;20151;-48
2024/04/03 09:06:20;;;;;;;3.50;2.38;;;20.60;99.90;;;;;;5053937;28;20105;-48
2024/04/03 09:08:46;;;;;;;5.25;3.00;;;20.60;99.90;;;;;;5071860;28;20032;-48
2024/04/03 09:11:23;;;;;;;4.85;3.33;;;20.60;99.90;;;;;;5071885;28;20020;-49
2024/04/03 09:13:55;;;;;;;5.05;2.92;;;20.70;99.90;;;;;;5072018;28;20372;-48
2024/04/03 09:16:22;;;;;;;5.80;3.80;;;20.70;99.90;;;;;;5071945;28;20112;-49
2024/04/03 09:18:50;;;;;;;6.03;3.55;;;20.70;99.90;;;;;;5071859;28;20024;-47
2024/04/03 09:21:21;;;;;;;7.00;3.95;;;20.70;99.90;;;;;;5071795;28;20021;-48
2024/04/03 09:23:46;;;;;;;6.78;3.15;;;20.70;99.90;;;;;;5072048;28;20017;-48
2024/04/03 09:26:13;;;;;;;5.57;3.80;;;20.70;99.90;;;;;;5070928;28;20346;-49
2024/04/03 09:28:39;;;;;;;4.80;3.42;;;20.70;99.90;;;;;;5071756;28;20107;-48
2024/04/03 09:31:04;;;;;;;7.07;4.43;;;20.70;99.90;;;;;;5072258;28;20366;-49
2024/04/03 09:33:33;;;;;;;6.85;4.32;;;20.70;99.90;;;;;;5071655;28;20460;-49
2024/04/03 09:36:05;;;;;;;7.78;4.20;;;20.80;99.90;;;;;;5071876;28;20060;-49
2024/04/03 09:38:32;;;;;;;5.68;3.97;;;20.70;99.90;;;;;;5071652;28;20016;-49
2024/04/03 09:41:02;;;;;;;6.13;4.05;;;20.80;99.90;;;;;;5071817;28;20027;-49
2024/04/03 09:43:33;;;;;;;6.15;4.05;;;20.70;99.90;;;;;;5071646;28;20027;-50
2024/04/03 09:46:06;;;;;;;5.97;4.03;;;20.80;99.90;;;;;;5071548;28;20488;-49
2024/04/03 09:48:35;;;;;;;7.45;3.78;;;20.80;99.90;;;;;;5071596;28;20039;-50
2024/04/03 09:51:00;;;;;;;6.13;4.20;;;20.80;99.90;;;;;;5071584;28;20075;-49
2024/04/03 09:53:29;;;;;;;6.97;3.95;;;20.80;99.90;;;;;;5053700;28;20064;-50
2024/04/03 09:55:56;;;;;;;6.20;3.60;;;20.80;99.90;;;;;;5071531;28;20107;-50
2024/04/03 09:58:26;;;;;;;8.20;3.92;;;20.80;99.90;;;;;;5071466;28;20507;-55
2024/04/03 10:00:59;;;;;;;4.97;3.28;;;20.90;99.90;;;;;;5071618;28;20029;-50
2024/04/03 10:03:27;;;;;;;4.88;3.72;;;20.90;99.90;;;;;;5053654;28;20452;-49
2024/04/03 10:06:02;;;;;;;6.32;3.85;;;20.90;99.90;;;;;;5071684;28;20021;-48
2024/04/03 10:08:35;;;;;;;7.13;4.25;;;20.90;99.90;;;;;;5053556;28;20067;-49
2024/04/03 10:11:11;;;;;;;5.63;3.85;;;20.90;99.90;;;;;;5071347;28;20384;-49
2024/04/03 10:13:41;;;;;;;5.65;3.17;;;21.00;99.90;;;;;;5044352;28;20051;-49
2024/04/03 10:16:15;;;;;;;6.38;3.80;;;21.00;99.90;;;;;;5071719;28;20013;-49
2024/04/03 10:18:43;;;;;;;7.07;3.95;;;21.00;99.90;;;;;;5071550;28;20040;-48
2024/04/03 10:21:10;;;;;;;5.13;3.75;;;21.00;99.90;;;;;;5071693;28;20028;-49
2024/04/03 10:23:43;;;;;;;6.80;3.63;;;21.00;99.90;;;;;;5071353;28;20087;-49
2024/04/03 10:26:10;;;;;;;4.45;3.10;;;21.00;99.90;;;;;;5071547;28;20025;-49
2024/04/03 10:28:36;;;;;;;6.75;4.00;;;21.00;99.90;;;;;;5071418;28;20063;-49
2024/04/03 10:31:02;;;;;;;6.05;3.65;;;21.00;99.90;;;;;;5071345;28;20434;-48
2024/04/03 10:33:28;;;;;;;4.95;3.60;;;21.10;99.90;;;;;;5071159;28;20127;-49
2024/04/03 10:35:56;;;;;;;4.28;3.03;;;21.10;99.90;;;;;;5053196;28;20021;-48
2024/04/03 10:38:24;;;;;;;;;;;21.10;99.90;;;;;;5074186;28;20078;-49
2024/04/03 10:40:50;;;;;;;7.55;3.88;;;21.20;99.90;;;;;;5075118;28;19905;-48
2024/04/03 10:43:16;;;;;;;5.75;3.72;;;21.20;99.90;;;;;;5074766;28;20361;-49
2024/04/03 10:45:49;;;;;;;5.53;3.17;;;21.20;99.90;;;;;;5074997;28;20154;-48
2024/04/03 10:48:16;;;;;;;6.93;3.45;;;21.20;99.90;;;;;;5074745;28;20099;-49
2024/04/03 10:50:45;;;;;;;7.20;3.40;;;21.20;99.90;;;;;;5056516;28;20040;-49
2024/04/03 10:53:11;;;;;;;5.45;3.08;;;21.20;99.90;;;;;;5075156;28;20035;-49
2024/04/03 10:55:38;;;;;;;4.00;3.00;;;21.20;99.90;;;;;;5074593;28;20024;-49
2024/04/03 10:58:05;;;;;;;6.13;3.40;;;21.30;99.90;;;;;;5074508;28;20042;-49
2024/04/03 11:00:35;;;;;;;4.28;2.75;;;21.30;99.90;;;;;;5057031;28;20056;-49
2024/04/03 11:03:05;;;;;;;4.18;2.90;;;21.30;99.90;;;;;;5074361;28;20017;-49
2024/04/03 11:05:32;;;;;;;7.03;3.00;;;21.30;99.90;;;;;;5074337;28;20376;-48
2024/04/03 11:07:59;;;;;;;5.30;3.17;;;21.30;99.90;;;;;;5074233;28;20029;-47
2024/04/03 11:10:26;;;;;;;8.33;3.20;;;21.40;99.90;;;;;;5074550;28;20469;-48
2024/04/03 11:13:06;;;;;;;3.78;2.92;;;21.40;99.90;;;;;;5074211;28;20256;-48
2024/04/03 11:15:32;;;;;;;3.65;2.53;;;21.40;99.90;;;;;;5056194;28;20028;-48
2024/04/03 11:17:59;;;;;;;4.45;2.83;;;21.40;99.90;;;;;;5074006;28;20021;-48
2024/04/03 11:20:26;;;;;;;5.85;3.38;;;21.40;99.90;;;;;;5056227;28;20044;-50
2024/04/03 11:22:56;;;;;;;6.35;3.17;;;21.50;99.90;;;;;;5063477;28;20017;-49
2024/04/03 11:25:31;;;;;;;5.72;2.60;;;21.50;99.90;;;;;;5054945;28;20029;-47
2024/04/03 11:28:00;;;;;;;4.70;3.08;;;21.50;99.90;;;;;;5074016;28;20437;-48
2024/04/03 11:30:29;;;;;;;7.35;2.88;;;21.50;99.90;;;;;;5070102;28;20017;-50
2024/04/03 11:32:55;;;;;;;6.20;2.97;;;21.60;99.90;;;;;;5035966;28;20121;-49
2024/04/03 11:35:22;;;;;;;10.10;2.83;;;21.60;99.90;;;;;;5052278;28;20528;-47
2024/04/03 11:37:49;;;;;;;6.85;3.50;;;21.60;99.90;;;;;;5053579;28;20029;-48
2024/04/03 11:40:15;;;;;;;8.07;3.10;;;21.60;99.90;;;;;;5053789;28;20025;-49
2024/04/03 11:42:41;;;;;;;4.07;2.72;;;21.60;99.90;;;;;;5053716;28;20025;-49
2024/04/03 11:45:07;;;;;;;6.20;2.95;;;21.70;99.90;;;;;;5053672;28;20025;-49
2024/04/03 11:47:34;;;;;;;5.15;3.17;;;21.70;99.90;;;;;;5051884;28;20024;-50
2024/04/03 11:50:00;;;;;;;5.70;3.13;;;21.70;99.90;;;;;;5051894;28;20370;-48
2024/04/03 11:52:26;;;;;;;4.75;2.88;;;21.70;99.90;;;;;;5052951;28;20048;-49
2024/04/03 11:54:53;;;;;;;6.03;2.83;;;21.70;99.90;;;;;;5053106;28;20480;-49
2024/04/03 11:57:19;;;;;;;9.82;3.47;;;21.80;99.90;;;;;;5035221;28;20093;-50
2024/04/03 11:59:46;;;;;;;6.82;2.63;;;21.80;99.90;;;;;;5060251;28;20025;-49
2024/04/03 12:02:12;;;;;;;5.55;2.90;;;21.80;99.90;;;;;;5046088;28;20033;-50
2024/04/03 12:04:37;;;;;;;6.50;3.05;;;21.80;99.90;;;;;;5028093;28;20025;-51
2024/04/03 12:07:03;;;;;;;7.75;2.90;;;21.90;99.90;;;;;;5051358;28;20021;-53
2024/04/03 12:09:29;;;;;;;6.15;2.67;;;21.90;99.90;;;;;;5052856;28;20040;-52
2024/04/03 12:11:55;;;;;;;5.30;2.55;;;21.90;99.90;;;;;;5052572;28;20021;-52
2024/04/03 12:14:21;;;;;;;11.57;2.72;;;21.90;99.90;;;;;;5052967;28;20096;-52
2024/04/03 12:16:52;;;;;;;5.30;3.13;;;22.00;99.90;;;;;;5052898;28;20020;-51
2024/04/03 12:19:33;;;;;;;5.43;3.10;;;22.00;99.90;;;;;;5053107;28;20074;-53
2024/04/03 12:21:59;;;;;;;4.65;2.83;;;22.00;99.90;;;;;;5052994;28;20020;-51
2024/04/03 12:24:25;;;;;;;7.25;3.22;;;22.10;99.90;;;;;;5052561;28;20385;-53
2024/04/03 12:26:51;;;;;;;7.63;3.08;;;22.10;99.90;;;;;;5052754;28;20024;-51
2024/04/03 12:29:17;;;;;;;4.75;2.00;;;22.10;99.90;;;;;;5053174;28;20033;-51
2024/04/03 12:31:43;;;;;;;13.55;7.55;;;22.20;99.90;;;;;;5052622;28;20062;-50
2024/04/03 12:34:12;;;;;;;7.90;4.18;;;22.20;99.90;;;;;;5052687;28;20393;-50
2024/04/03 12:36:38;;;;;;;9.27;7.30;;;22.20;99.90;;;;;;5052760;28;20112;-51
2024/04/03 12:39:05;;;;;;;9.57;5.35;;;22.20;99.90;;;;;;5034115;28;20021;-49
2024/04/03 12:41:31;;;;;;;8.23;4.13;;;22.30;99.90;;;;;;5052680;28;20025;-50
2024/04/03 12:43:56;;;;;;;7.85;3.38;;;22.30;99.90;;;;;;5023122;28;20025;-47
2024/04/03 12:46:22;;;;;;;8.35;4.00;;;22.30;99.90;;;;;;5044865;28;20025;-52
2024/04/03 12:48:48;;;;;;;7.43;3.17;;;22.30;99.90;;;;;;5052754;28;20101;-52